createdAt,value
2023-04-07T00:01:36.848Z,96926.59
2023-04-07T00:04:03.514Z,96934.47
2023-04-07T00:06:30.287Z,96920.00
2023-04-07T00:08:56.736Z,96920.38
2023-04-07T00:11:23.105Z,96921.91
2023-04-07T00:13:49.425Z,96917.06
2023-04-07T00:16:15.987Z,96917.94
2023-04-07T00:18:42.331Z,96923.00
2023-04-07T00:21:08.736Z,96922.47
2023-04-07T00:23:35.040Z,96922.66
2023-04-07T00:26:01.445Z,96920.69
2023-04-07T00:28:27.775Z,96916.25
2023-04-07T00:30:54.118Z,96912.34
2023-04-07T00:33:20.448Z,96911.22
2023-04-07T00:35:46.803Z,96906.25
2023-04-07T00:38:13.263Z,96908.84
2023-04-07T00:40:39.693Z,96907.47
2023-04-07T00:43:06.098Z,96907.09
2023-04-07T00:45:32.578Z,96906.56
2023-04-07T00:47:59.178Z,96899.84
2023-04-07T00:50:25.883Z,96903.69
2023-04-07T00:52:53.807Z,96905.44
2023-04-07T00:55:20.399Z,96902.34
2023-04-07T00:57:46.836Z,96900.41
2023-04-07T01:00:13.467Z,96894.59
2023-04-07T01:02:58.385Z,96888.19
2023-04-07T01:05:33.337Z,96888.00
2023-04-07T01:07:59.838Z,96891.00
2023-04-07T01:10:44.151Z,96892.66
2023-04-07T01:13:22.282Z,96884.69
2023-04-07T01:15:50.244Z,96883.88
2023-04-07T01:18:20.314Z,96875.50
2023-04-07T01:20:49.253Z,96881.00
2023-04-07T01:23:22.346Z,96878.53
2023-04-07T01:26:22.370Z,96875.72
2023-04-07T01:28:48.721Z,96884.31
2023-04-07T01:31:16.300Z,96885.84
2023-04-07T01:33:44.480Z,96879.53
2023-04-07T01:36:11.616Z,96883.78
2023-04-07T01:38:38.828Z,96880.59
2023-04-07T01:41:06.189Z,96880.06
2023-04-07T01:43:33.243Z,96876.75
2023-04-07T01:46:01.340Z,96870.25
2023-04-07T01:48:27.731Z,96873.56
2023-04-07T01:50:55.184Z,96873.34
2023-04-07T01:53:23.119Z,96874.50
2023-04-07T01:55:49.815Z,96876.75
2023-04-07T01:58:16.241Z,96876.03
2023-04-07T02:00:43.715Z,96872.72
2023-04-07T02:03:23.306Z,96865.91
2023-04-07T02:05:52.236Z,96868.38
2023-04-07T02:08:19.940Z,96849.91
2023-04-07T02:10:47.612Z,96849.19
2023-04-07T02:13:16.052Z,96857.44
2023-04-07T02:15:45.312Z,96858.69
2023-04-07T02:18:13.110Z,96854.56
2023-04-07T02:20:39.986Z,96861.47
2023-04-07T02:23:07.848Z,96852.28
2023-04-07T02:25:34.299Z,96854.94
2023-04-07T02:28:01.413Z,96856.31
2023-04-07T02:30:29.242Z,96850.53
2023-04-07T02:32:55.669Z,96845.47
2023-04-07T02:35:22.264Z,96850.22
2023-04-07T02:37:49.126Z,96860.31
2023-04-07T02:40:15.823Z,96855.69
2023-04-07T02:42:42.498Z,96852.06
2023-04-07T02:45:09.731Z,96848.97
2023-04-07T02:47:36.819Z,96845.47
2023-04-07T02:50:03.439Z,96850.47
2023-04-07T02:52:29.792Z,96847.28
2023-04-07T02:54:56.250Z,96854.50
2023-04-07T02:57:22.620Z,96847.81
2023-04-07T02:59:48.964Z,96838.66
2023-04-07T03:02:15.541Z,96838.50
2023-04-07T03:04:41.999Z,96841.53
2023-04-07T03:07:08.324Z,96833.16
2023-04-07T03:09:34.941Z,96831.94
2023-04-07T03:12:02.200Z,96837.72
2023-04-07T03:14:28.547Z,96831.63
2023-04-07T03:16:54.917Z,96833.28
2023-04-07T03:19:21.345Z,96830.59
2023-04-07T03:21:47.711Z,96826.69
2023-04-07T03:24:14.027Z,96821.13
2023-04-07T03:26:40.628Z,96826.88
2023-04-07T03:29:07.101Z,96828.63
2023-04-07T03:31:33.446Z,96832.03
2023-04-07T03:33:59.786Z,96828.00
2023-04-07T03:36:28.054Z,96830.06
2023-04-07T03:38:54.504Z,96814.47
2023-04-07T03:41:21.222Z,96823.78
2023-04-07T03:43:47.589Z,96821.06
2023-04-07T03:46:14.067Z,96823.38
2023-04-07T03:48:40.849Z,96824.38
2023-04-07T03:51:08.221Z,96830.78
2023-04-07T03:53:34.692Z,96817.16
2023-04-07T03:56:01.380Z,96827.22
2023-04-07T03:58:27.741Z,96822.41
2023-04-07T04:00:54.210Z,96819.72
2023-04-07T04:03:20.891Z,96823.22
2023-04-07T04:05:47.357Z,96820.19
2023-04-07T04:08:13.727Z,96818.53
2023-04-07T04:10:45.493Z,96823.47
2023-04-07T04:13:11.843Z,96823.47
2023-04-07T04:15:38.302Z,96818.28
2023-04-07T04:18:04.687Z,96809.13
2023-04-07T04:20:31.079Z,96815.72
2023-04-07T04:22:58.444Z,96817.00
2023-04-07T04:25:24.800Z,96820.34
2023-04-07T04:27:51.518Z,96816.47
2023-04-07T04:30:17.861Z,96813.31
2023-04-07T04:32:44.680Z,96812.72
2023-04-07T04:35:11.242Z,96809.00
2023-04-07T04:37:37.616Z,96813.81
2023-04-07T04:40:04.210Z,96811.03
2023-04-07T04:42:31.561Z,96808.09
2023-04-07T04:44:58.102Z,96812.44
2023-04-07T04:47:24.597Z,96813.72
2023-04-07T04:49:51.121Z,96813.88
2023-04-07T04:52:17.537Z,96820.31
2023-04-07T04:54:43.885Z,96818.28
2023-04-07T04:57:17.394Z,96818.69
2023-04-07T04:59:43.725Z,96821.06
2023-04-07T05:02:10.193Z,96815.53
2023-04-07T05:04:37.772Z,96821.81
2023-04-07T05:07:05.175Z,96818.09
2023-04-07T05:09:31.661Z,96817.94
2023-04-07T05:11:58.383Z,96821.94
2023-04-07T05:14:24.724Z,96811.81
2023-04-07T05:16:51.459Z,96807.38
2023-04-07T05:19:17.805Z,96813.66
2023-04-07T05:21:45.500Z,96816.44
2023-04-07T05:24:12.060Z,96815.38
2023-04-07T05:26:38.487Z,96807.16
2023-04-07T05:29:04.885Z,96807.53
2023-04-07T05:31:31.239Z,96806.00
2023-04-07T05:33:58.113Z,96801.63
2023-04-07T05:36:24.552Z,96806.59
2023-04-07T05:38:51.588Z,96808.91
2023-04-07T05:41:17.938Z,96805.25
2023-04-07T05:43:44.377Z,96803.47
2023-04-07T05:46:10.937Z,96791.28
2023-04-07T05:48:37.426Z,96788.78
2023-04-07T05:51:03.867Z,96795.19
2023-04-07T05:53:30.469Z,96787.72
2023-04-07T05:55:56.775Z,96794.66
2023-04-07T05:58:23.179Z,96790.16
2023-04-07T06:00:50.073Z,96787.63
2023-04-07T06:03:16.733Z,96790.72
2023-04-07T06:05:45.730Z,96785.78
2023-04-07T06:08:12.113Z,96789.31
2023-04-07T06:10:39.653Z,96789.16
2023-04-07T06:13:06.070Z,96781.16
2023-04-07T06:15:32.446Z,96782.16
2023-04-07T06:17:59.403Z,96792.28
2023-04-07T06:20:27.744Z,96786.75
2023-04-07T06:22:54.953Z,96785.28
2023-04-07T06:25:21.305Z,96790.34
2023-04-07T06:27:47.694Z,96776.84
2023-04-07T06:30:14.263Z,96773.63
2023-04-07T06:32:41.442Z,96780.78
2023-04-07T06:35:08.043Z,96780.19
2023-04-07T06:37:34.454Z,96781.53
2023-04-07T06:40:00.862Z,96781.84
2023-04-07T06:42:27.198Z,96779.47
2023-04-07T06:44:53.533Z,96782.59
2023-04-07T06:47:20.031Z,96774.94
2023-04-07T06:49:46.395Z,96771.84
2023-04-07T06:52:12.868Z,96772.47
2023-04-07T06:54:39.251Z,96766.72
2023-04-07T06:57:11.703Z,96771.13
2023-04-07T06:59:38.514Z,96769.50
2023-04-07T07:02:05.016Z,96768.91
2023-04-07T07:04:31.871Z,96765.94
2023-04-07T07:06:58.263Z,96771.91
2023-04-07T07:09:24.640Z,96775.13
2023-04-07T07:11:52.046Z,96772.03
2023-04-07T07:14:18.394Z,96783.91
2023-04-07T07:16:44.754Z,96772.31
2023-04-07T07:19:11.155Z,96770.97
2023-04-07T07:21:37.587Z,96774.34
2023-04-07T07:24:03.972Z,96767.59
2023-04-07T07:26:30.361Z,96777.31
2023-04-07T07:28:56.787Z,96773.22
2023-04-07T07:31:23.922Z,96774.50
2023-04-07T07:33:51.599Z,96777.66
2023-04-07T07:36:17.953Z,96776.19
2023-04-07T07:38:44.338Z,96778.72
2023-04-07T07:41:10.834Z,96777.25
2023-04-07T07:43:37.527Z,96778.47
2023-04-07T07:46:04.111Z,96786.84
2023-04-07T07:48:30.466Z,96779.44
2023-04-07T07:50:57.074Z,96775.31
2023-04-07T07:53:23.508Z,96779.72
2023-04-07T07:55:49.832Z,96778.28
2023-04-07T07:58:16.141Z,96771.22
2023-04-07T08:00:42.689Z,96768.94
2023-04-07T08:03:09.282Z,96773.56
2023-04-07T08:05:35.954Z,96773.22
2023-04-07T08:08:03.026Z,96778.22
2023-04-07T08:10:29.433Z,96776.88
2023-04-07T08:12:55.848Z,96773.31
2023-04-07T08:15:22.307Z,96768.47
2023-04-07T08:17:48.687Z,96775.16
2023-04-07T08:20:15.109Z,96771.63
2023-04-07T08:22:41.451Z,96775.41
2023-04-07T08:25:08.669Z,96769.59
2023-04-07T08:27:35.106Z,96768.31
2023-04-07T08:30:03.194Z,96774.63
2023-04-07T08:32:40.683Z,96767.72
2023-04-07T08:35:07.845Z,96766.75
2023-04-07T08:37:34.500Z,96758.06
2023-04-07T08:40:01.691Z,96762.28
2023-04-07T08:42:29.723Z,96760.09
2023-04-07T08:44:57.585Z,96761.75
2023-04-07T08:47:25.907Z,96766.56
2023-04-07T08:49:53.106Z,96755.97
2023-04-07T08:52:22.895Z,96759.56
2023-04-07T08:54:49.685Z,96765.81
2023-04-07T08:57:16.627Z,96758.06
2023-04-07T08:59:45.327Z,96756.09
2023-04-07T09:02:12.689Z,96765.22
2023-04-07T09:04:39.113Z,96762.47
2023-04-07T09:07:05.441Z,96758.66
2023-04-07T09:09:31.895Z,96755.84
2023-04-07T09:11:58.819Z,96756.41
2023-04-07T09:14:25.286Z,96752.41
2023-04-07T09:16:51.695Z,96756.75
2023-04-07T09:19:18.125Z,96755.13
2023-04-07T09:21:48.946Z,96754.88
2023-04-07T09:24:41.454Z,96745.53
2023-04-07T09:27:11.366Z,96748.44
2023-04-07T09:29:37.810Z,96747.75
2023-04-07T09:32:04.506Z,96747.06
2023-04-07T09:34:35.089Z,96741.31
2023-04-07T09:37:01.500Z,96745.25
2023-04-07T09:39:28.184Z,96743.09
2023-04-07T09:41:54.565Z,96738.72
2023-04-07T09:44:24.379Z,96731.16
2023-04-07T09:46:56.284Z,96734.41
2023-04-07T09:49:24.136Z,96726.00
2023-04-07T09:51:54.562Z,96725.03
2023-04-07T09:54:36.471Z,96718.97
2023-04-07T09:57:04.035Z,96713.47
2023-04-07T09:59:31.294Z,96721.00
2023-04-07T10:01:58.336Z,96713.97
2023-04-07T10:04:25.014Z,96718.75
2023-04-07T10:06:52.785Z,96715.25
2023-04-07T10:09:19.216Z,96713.66
2023-04-07T10:11:46.078Z,96712.41
2023-04-07T10:14:13.082Z,96694.38
2023-04-07T10:16:39.930Z,96701.31
2023-04-07T10:19:07.155Z,96695.91
2023-04-07T10:21:39.259Z,96692.34
2023-04-07T10:24:09.322Z,96698.72
2023-04-07T10:26:37.215Z,96698.06
2023-04-07T10:29:06.605Z,96696.06
2023-04-07T10:31:33.553Z,96683.16
2023-04-07T10:34:01.344Z,96687.47
2023-04-07T10:36:29.135Z,96687.06
2023-04-07T10:39:07.534Z,96686.25
2023-04-07T10:41:34.996Z,96679.78
2023-04-07T10:44:02.321Z,96681.06
2023-04-07T10:46:52.149Z,96678.28
2023-04-07T10:49:19.062Z,96684.09
2023-04-07T10:52:05.571Z,96684.28
2023-04-07T10:54:31.957Z,96681.34
2023-04-07T10:57:12.946Z,96673.84
2023-04-07T10:59:40.735Z,96678.22
2023-04-07T11:02:17.488Z,96675.75
2023-04-07T11:04:45.460Z,96685.03
2023-04-07T11:07:13.064Z,96671.31
2023-04-07T11:09:40.414Z,96669.44
2023-04-07T11:12:07.046Z,96659.16
2023-04-07T11:14:33.713Z,96671.41
2023-04-07T11:17:03.386Z,96663.78
2023-04-07T11:19:30.344Z,96668.28
2023-04-07T11:22:29.821Z,96669.72
2023-04-07T11:24:56.472Z,96667.84
2023-04-07T11:27:23.029Z,96660.19
2023-04-07T11:29:50.274Z,96656.16
2023-04-07T11:32:24.907Z,96658.16
2023-04-07T11:34:52.412Z,96656.25
2023-04-07T11:37:19.646Z,96664.19
2023-04-07T11:39:51.569Z,96664.63
2023-04-07T11:42:31.146Z,96667.09
2023-04-07T11:44:57.492Z,96658.88
2023-04-07T11:47:33.484Z,96659.22
2023-04-07T11:50:01.053Z,96665.34
2023-04-07T11:52:27.401Z,96662.25
2023-04-07T11:54:53.759Z,96657.75
2023-04-07T11:57:27.391Z,96653.50
2023-04-07T12:00:09.947Z,96662.97
2023-04-07T12:02:38.003Z,96655.53
2023-04-07T12:05:05.045Z,96656.09
2023-04-07T12:07:31.553Z,96659.44
2023-04-07T12:09:57.889Z,96647.16
2023-04-07T12:12:33.125Z,96654.78
2023-04-07T12:14:59.488Z,96647.13
2023-04-07T12:17:26.771Z,96642.13
2023-04-07T12:19:53.613Z,96642.91
2023-04-07T12:22:20.219Z,96638.19
2023-04-07T12:24:46.513Z,96645.50
2023-04-07T12:27:12.907Z,96636.53
2023-04-07T12:29:39.296Z,96635.75
2023-04-07T12:32:05.680Z,96637.53
2023-04-07T12:34:32.074Z,96637.66
2023-04-07T12:36:58.546Z,96640.09
2023-04-07T12:39:24.856Z,96633.19
2023-04-07T12:41:53.326Z,96634.22
2023-04-07T12:44:19.763Z,96640.34
2023-04-07T12:46:46.185Z,96636.66
2023-04-07T12:49:12.505Z,96638.81
2023-04-07T12:51:40.101Z,96626.75
2023-04-07T12:54:06.632Z,96630.00
2023-04-07T12:56:33.200Z,96631.06
2023-04-07T12:58:59.504Z,96634.47
2023-04-07T13:01:25.999Z,96629.00
2023-04-07T13:03:52.653Z,96629.66
2023-04-07T13:06:19.460Z,96634.56
2023-04-07T13:08:45.854Z,96634.72
2023-04-07T13:11:12.182Z,96631.50
2023-04-07T13:13:38.539Z,96631.97
2023-04-07T13:16:05.036Z,96628.22
2023-04-07T13:18:31.370Z,96624.38
2023-04-07T13:21:33.754Z,96623.34
2023-04-07T13:23:44.220Z,96620.16
2023-04-07T13:26:10.744Z,96623.00
2023-04-07T13:28:37.387Z,96620.34
2023-04-07T13:31:03.888Z,96611.22
2023-04-07T13:33:30.392Z,96609.97
2023-04-07T13:35:56.909Z,96604.94
2023-04-07T13:38:23.312Z,96604.22
2023-04-07T13:40:49.833Z,96600.88
2023-04-07T13:43:18.524Z,96608.56
2023-04-07T13:45:44.929Z,96608.44
2023-04-07T13:48:11.407Z,96604.88
2023-04-07T13:50:38.514Z,96602.63
2023-04-07T13:53:04.873Z,96614.16
2023-04-07T13:55:31.240Z,96598.44
2023-04-07T13:57:57.583Z,96599.53
2023-04-07T14:00:23.999Z,96602.34
2023-04-07T14:02:50.422Z,96592.47
2023-04-07T14:05:16.840Z,96606.28
2023-04-07T14:07:43.163Z,96606.66
2023-04-07T14:10:10.769Z,96603.66
2023-04-07T14:12:37.212Z,96601.03
2023-04-07T14:15:04.241Z,96602.53
2023-04-07T14:17:30.882Z,96600.41
2023-04-07T14:19:57.306Z,96598.66
2023-04-07T14:22:23.687Z,96602.00
2023-04-07T14:24:50.040Z,96594.97
2023-04-07T14:27:20.879Z,96602.38
2023-04-07T14:29:50.146Z,96595.19
2023-04-07T14:32:16.984Z,96588.94
2023-04-07T14:34:43.439Z,96596.19
2023-04-07T14:37:09.848Z,96594.50
2023-04-07T14:39:37.277Z,96597.22
2023-04-07T14:42:04.605Z,96591.47
2023-04-07T14:44:31.648Z,96591.72
2023-04-07T14:46:58.053Z,96587.44
2023-04-07T14:49:25.921Z,96582.91
2023-04-07T14:51:52.305Z,96585.56
2023-04-07T14:54:18.992Z,96596.16
2023-04-07T14:56:45.494Z,96591.53
2023-04-07T14:59:11.905Z,96578.97
2023-04-07T15:01:39.904Z,96597.31
2023-04-07T15:04:06.415Z,96591.41
2023-04-07T15:06:32.788Z,96589.13
2023-04-07T15:08:59.123Z,96587.84
2023-04-07T15:11:26.205Z,96592.31
2023-04-07T15:13:52.572Z,96587.69
2023-04-07T15:16:19.111Z,96592.75
2023-04-07T15:18:47.297Z,96595.38
2023-04-07T15:21:14.764Z,96598.16
2023-04-07T15:23:41.862Z,96591.31
2023-04-07T15:26:08.574Z,96591.09
2023-04-07T15:28:34.957Z,96595.59
2023-04-07T15:31:01.522Z,96590.34
2023-04-07T15:33:28.964Z,96596.25
2023-04-07T15:35:55.939Z,96602.19
2023-04-07T15:38:22.306Z,96600.38
2023-04-07T15:40:48.685Z,96605.03
2023-04-07T15:43:15.311Z,96597.72
2023-04-07T15:45:43.153Z,96605.06
2023-04-07T15:48:10.211Z,96597.75
2023-04-07T15:50:36.653Z,96611.34
2023-04-07T15:53:06.340Z,96600.78
2023-04-07T15:55:33.400Z,96609.56
2023-04-07T15:57:59.986Z,96610.16
2023-04-07T16:00:30.420Z,96615.06
2023-04-07T16:02:56.913Z,96618.06
2023-04-07T16:05:23.437Z,96618.88
2023-04-07T16:07:49.795Z,96618.91
2023-04-07T16:10:19.706Z,96619.28
2023-04-07T16:12:46.639Z,96621.72
2023-04-07T16:15:13.145Z,96624.56
2023-04-07T16:17:40.529Z,96624.91
2023-04-07T16:20:13.608Z,96624.16
2023-04-07T16:22:40.947Z,96623.56
2023-04-07T16:25:07.743Z,96633.91
2023-04-07T16:27:34.092Z,96632.47
2023-04-07T16:30:00.464Z,96635.28
2023-04-07T16:32:26.881Z,96626.56
2023-04-07T16:34:53.224Z,96635.06
2023-04-07T16:37:19.548Z,96632.44
2023-04-07T16:39:46.129Z,96644.00
2023-04-07T16:42:12.459Z,96639.50
2023-04-07T16:44:38.784Z,96640.09
2023-04-07T16:47:05.109Z,96643.28
2023-04-07T16:49:31.500Z,96643.88
2023-04-07T16:51:57.851Z,96648.34
2023-04-07T16:54:24.167Z,96649.69
2023-04-07T16:56:51.498Z,96654.69
2023-04-07T16:59:17.967Z,96649.19
2023-04-07T17:01:44.771Z,96654.78
2023-04-07T17:04:12.295Z,96659.81
2023-04-07T17:06:38.721Z,96665.50
2023-04-07T17:09:05.164Z,96667.41
2023-04-07T17:11:31.538Z,96667.91
2023-04-07T17:13:57.922Z,96672.44
2023-04-07T17:16:24.409Z,96677.97
2023-04-07T17:18:51.700Z,96685.72
2023-04-07T17:21:18.182Z,96681.91
2023-04-07T17:23:44.504Z,96678.13
2023-04-07T17:26:11.074Z,96682.84
2023-04-07T17:28:37.406Z,96684.31
2023-04-07T17:31:04.823Z,96689.22
2023-04-07T17:33:31.267Z,96694.56
2023-04-07T17:35:57.717Z,96699.47
2023-04-07T17:38:24.072Z,96703.69
2023-04-07T17:40:56.209Z,96703.97
2023-04-07T17:43:22.715Z,96708.81
2023-04-07T17:45:49.058Z,96707.59
2023-04-07T17:48:15.704Z,96718.00
2023-04-07T17:50:42.177Z,96709.88
2023-04-07T17:53:08.560Z,96716.47
2023-04-07T17:55:34.923Z,96718.84
2023-04-07T17:58:02.002Z,96718.78
2023-04-07T18:00:29.451Z,96724.41
2023-04-07T18:02:56.110Z,96725.38
2023-04-07T18:05:22.642Z,96722.78
2023-04-07T18:07:49.311Z,96725.34
2023-04-07T18:10:16.583Z,96731.53
2023-04-07T18:12:43.025Z,96734.31
2023-04-07T18:15:09.667Z,96742.84
2023-04-07T18:17:36.223Z,96746.78
2023-04-07T18:20:03.529Z,96747.72
2023-04-07T18:22:30.372Z,96753.03
2023-04-07T18:24:56.905Z,96758.47
2023-04-07T18:27:25.218Z,96761.94
2023-04-07T18:29:51.915Z,96765.88
2023-04-07T18:32:18.248Z,96764.63
2023-04-07T18:34:47.021Z,96776.75
2023-04-07T18:37:13.431Z,96772.81
2023-04-07T18:39:39.848Z,96777.91
2023-04-07T18:42:06.430Z,96782.31
2023-04-07T18:44:32.776Z,96785.75
2023-04-07T18:46:59.375Z,96793.63
2023-04-07T18:49:27.846Z,96796.38
2023-04-07T18:51:55.254Z,96794.75
2023-04-07T18:54:21.575Z,96807.47
2023-04-07T18:56:48.322Z,96802.09
2023-04-07T18:59:14.652Z,96810.34
2023-04-07T19:01:42.498Z,96810.22
2023-04-07T19:04:10.681Z,96811.16
2023-04-07T19:06:37.381Z,96811.47
2023-04-07T19:09:04.164Z,96811.44
2023-04-07T19:11:30.745Z,96819.38
2023-04-07T19:13:57.168Z,96820.91
2023-04-07T19:16:26.530Z,96831.81
2023-04-07T19:18:54.140Z,96833.66
2023-04-07T19:21:20.720Z,96833.50
2023-04-07T19:23:47.673Z,96830.84
2023-04-07T19:26:14.393Z,96841.13
2023-04-07T19:28:41.366Z,96839.59
2023-04-07T19:31:10.985Z,96845.97
2023-04-07T19:33:38.082Z,96842.69
2023-04-07T19:36:04.715Z,96855.59
2023-04-07T19:38:31.488Z,96847.75
2023-04-07T19:40:58.024Z,96862.75
2023-04-07T19:43:24.414Z,96857.31
2023-04-07T19:45:51.844Z,96864.94
2023-04-07T19:48:19.102Z,96868.22
2023-04-07T19:50:49.779Z,96873.66
2023-04-07T19:53:16.644Z,96877.25
2023-04-07T19:55:43.446Z,96870.25
2023-04-07T19:58:09.788Z,96870.69
2023-04-07T20:00:36.729Z,96869.94
2023-04-07T20:03:06.471Z,96876.81
2023-04-07T20:05:34.003Z,96866.66
2023-04-07T20:08:03.630Z,96872.78
2023-04-07T20:10:29.958Z,96875.69
2023-04-07T20:12:56.443Z,96871.59
2023-04-07T20:15:24.609Z,96882.31
2023-04-07T20:17:51.540Z,96873.91
2023-04-07T20:20:19.147Z,96876.88
2023-04-07T20:22:45.764Z,96878.28
2023-04-07T20:25:14.254Z,96879.19
2023-04-07T20:27:40.638Z,96884.50
2023-04-07T20:30:09.235Z,96875.81
2023-04-07T20:32:35.626Z,96887.50
2023-04-07T20:35:03.247Z,96885.19
2023-04-07T20:37:29.866Z,96884.09
2023-04-07T20:39:56.259Z,96882.56
2023-04-07T20:42:22.621Z,96893.88
2023-04-07T20:44:49.010Z,96890.59
2023-04-07T20:47:15.570Z,96886.94
2023-04-07T20:49:43.581Z,96896.66
2023-04-07T20:52:09.955Z,96896.97
2023-04-07T20:54:36.374Z,96896.97
2023-04-07T20:57:02.829Z,96900.72
2023-04-07T20:59:30.136Z,96901.66
2023-04-07T21:01:56.676Z,96901.88
2023-04-07T21:04:24.474Z,96900.69
2023-04-07T21:06:51.037Z,96903.31
2023-04-07T21:09:17.816Z,96899.75
2023-04-07T21:11:44.157Z,96908.03
2023-04-07T21:14:10.531Z,96900.34
2023-04-07T21:16:37.084Z,96910.38
2023-04-07T21:19:03.653Z,96913.00
2023-04-07T21:21:30.065Z,96916.72
2023-04-07T21:23:56.536Z,96919.47
2023-04-07T21:26:22.860Z,96924.16
2023-04-07T21:28:50.845Z,96921.09
2023-04-07T21:31:21.666Z,96918.63
2023-04-07T21:33:48.282Z,96919.34
2023-04-07T21:36:14.600Z,96928.41
2023-04-07T21:38:41.807Z,96922.06
2023-04-07T21:41:08.210Z,96922.47
2023-04-07T21:43:37.577Z,96923.84
2023-04-07T21:46:03.988Z,96922.38
2023-04-07T21:48:30.364Z,96925.41
2023-04-07T21:50:57.200Z,96926.66
2023-04-07T21:53:23.527Z,96921.31
2023-04-07T21:55:49.868Z,96931.16
2023-04-07T21:58:16.211Z,96931.56
2023-04-07T22:00:42.601Z,96938.00
2023-04-07T22:03:09.991Z,96931.03
2023-04-07T22:05:36.573Z,96933.66
2023-04-07T22:08:03.233Z,96936.78
2023-04-07T22:10:29.707Z,96930.50
2023-04-07T22:12:56.050Z,96935.22
2023-04-07T22:15:22.617Z,96919.63
2023-04-07T22:17:49.050Z,96942.88
2023-04-07T22:20:16.508Z,96936.44
2023-04-07T22:22:43.944Z,96938.41
2023-04-07T22:25:10.366Z,96938.28
2023-04-07T22:27:36.687Z,96941.53
2023-04-07T22:30:03.618Z,96940.97
2023-04-07T22:32:30.083Z,96938.91
2023-04-07T22:34:57.164Z,96937.38
2023-04-07T22:37:23.543Z,96947.13
2023-04-07T22:39:49.881Z,96944.56
2023-04-07T22:42:16.260Z,96936.88
2023-04-07T22:44:42.625Z,96943.25
2023-04-07T22:47:09.165Z,96937.56
2023-04-07T22:49:35.718Z,96943.44
2023-04-07T22:52:02.523Z,96947.72
2023-04-07T22:54:28.856Z,96946.16
2023-04-07T22:56:55.942Z,96940.69
2023-04-07T22:59:22.290Z,96938.59
2023-04-07T23:01:48.901Z,96939.75
2023-04-07T23:04:15.451Z,96943.13
2023-04-07T23:06:43.515Z,96942.28
2023-04-07T23:09:10.328Z,96943.50
2023-04-07T23:11:36.710Z,96943.91
2023-04-07T23:14:05.991Z,96944.16
2023-04-07T23:16:33.248Z,96946.72
2023-04-07T23:18:59.756Z,96943.38
2023-04-07T23:21:26.332Z,96947.72
2023-04-07T23:23:52.739Z,96946.59
2023-04-07T23:26:19.100Z,96947.44
2023-04-07T23:28:46.266Z,96942.97
2023-04-07T23:31:12.586Z,96944.34
2023-04-07T23:33:38.925Z,96939.56
2023-04-07T23:36:05.568Z,96938.28
2023-04-07T23:38:32.357Z,96938.19
2023-04-07T23:40:58.696Z,96935.50
2023-04-07T23:43:25.030Z,96940.31
2023-04-07T23:45:51.379Z,96938.72
2023-04-07T23:48:17.831Z,96935.44
2023-04-07T23:50:44.172Z,96933.13
2023-04-07T23:53:10.507Z,96936.63
2023-04-07T23:55:36.933Z,96935.03
2023-04-07T23:58:03.328Z,96933.94
